createdAt,value
2018-09-09T00:00:08.122Z,14.40
2018-09-09T00:02:36.583Z,14.30
2018-09-09T00:05:05.306Z,14.30
2018-09-09T00:07:33.841Z,14.20
2018-09-09T00:10:02.298Z,14.20
2018-09-09T00:12:30.803Z,14.20
2018-09-09T00:14:59.259Z,14.20
2018-09-09T00:17:28.246Z,14.20
2018-09-09T00:19:56.663Z,14.20
2018-09-09T00:22:25.146Z,14.10
2018-09-09T00:24:53.610Z,14.10
2018-09-09T00:27:22.096Z,14.10
2018-09-09T00:29:50.587Z,14.10
2018-09-09T00:32:19.194Z,14.10
2018-09-09T00:34:47.614Z,14.00
2018-09-09T00:37:16.076Z,14.00
2018-09-09T00:39:44.553Z,14.00
2018-09-09T00:42:13.022Z,14.00
2018-09-09T00:44:41.498Z,14.00
2018-09-09T00:47:09.931Z,14.00
2018-09-09T00:49:43.702Z,14.00
2018-09-09T00:52:17.473Z,14.00
2018-09-09T00:54:45.970Z,14.00
2018-09-09T00:57:14.423Z,14.00
2018-09-09T00:59:42.882Z,14.00
2018-09-09T01:02:11.394Z,14.00
2018-09-09T01:04:39.885Z,14.00
2018-09-09T01:07:08.403Z,14.00
2018-09-09T01:09:36.949Z,14.00
2018-09-09T01:12:05.546Z,14.00
2018-09-09T01:14:34.722Z,13.90
2018-09-09T01:17:03.326Z,13.90
2018-09-09T01:19:31.906Z,13.90
2018-09-09T01:22:00.417Z,13.80
2018-09-09T01:24:28.909Z,13.80
2018-09-09T01:26:57.369Z,13.80
2018-09-09T01:29:25.825Z,13.70
2018-09-09T01:31:54.303Z,13.80
2018-09-09T01:34:22.788Z,13.80
2018-09-09T01:36:51.250Z,13.80
2018-09-09T01:39:19.749Z,13.80
2018-09-09T01:41:48.215Z,13.80
2018-09-09T01:44:16.677Z,13.80
2018-09-09T01:46:45.166Z,13.80
2018-09-09T01:49:13.630Z,13.80
2018-09-09T01:51:42.086Z,13.90
2018-09-09T01:54:10.585Z,13.90
2018-09-09T01:56:39.042Z,14.00
2018-09-09T01:59:07.512Z,14.10
2018-09-09T02:01:36.031Z,14.20
2018-09-09T02:04:04.574Z,14.20
2018-09-09T02:06:33.038Z,14.20
2018-09-09T02:09:01.542Z,14.20
2018-09-09T02:11:30.003Z,14.20
2018-09-09T02:13:58.526Z,14.20
2018-09-09T02:16:27.051Z,14.20
2018-09-09T02:18:55.516Z,14.20
2018-09-09T02:21:24.059Z,14.20
2018-09-09T02:23:52.562Z,14.20
2018-09-09T02:26:21.014Z,14.20
2018-09-09T02:28:49.490Z,14.20
2018-09-09T02:31:18.047Z,14.10
2018-09-09T02:33:46.514Z,14.10
2018-09-09T02:36:15.163Z,14.10
2018-09-09T02:38:43.698Z,14.10
2018-09-09T02:41:12.197Z,14.10
2018-09-09T02:43:40.697Z,14.10
2018-09-09T02:46:09.178Z,14.10
2018-09-09T02:48:37.626Z,14.10
2018-09-09T02:51:06.142Z,14.10
2018-09-09T02:53:34.626Z,14.00
2018-09-09T02:56:07.293Z,14.00
2018-09-09T02:58:35.817Z,14.00
2018-09-09T03:01:04.327Z,14.00
2018-09-09T03:03:32.796Z,14.00
2018-09-09T03:06:01.342Z,13.90
2018-09-09T03:08:29.865Z,13.90
2018-09-09T03:11:03.604Z,13.90
2018-09-09T03:13:32.062Z,13.80
2018-09-09T03:16:00.535Z,13.80
2018-09-09T03:18:29.046Z,13.70
2018-09-09T03:20:57.775Z,13.70
2018-09-09T03:23:26.277Z,13.70
2018-09-09T03:25:54.778Z,13.60
2018-09-09T03:28:23.287Z,13.60
2018-09-09T03:30:51.779Z,13.60
2018-09-09T03:33:20.290Z,13.60
2018-09-09T03:35:48.746Z,13.60
2018-09-09T03:38:17.395Z,13.60
2018-09-09T03:40:45.934Z,13.60
2018-09-09T03:43:14.438Z,13.60
2018-09-09T03:45:42.915Z,13.70
2018-09-09T03:48:11.438Z,13.60
2018-09-09T03:50:39.910Z,13.60
2018-09-09T03:53:08.438Z,13.60
2018-09-09T03:55:36.926Z,13.60
2018-09-09T03:58:05.414Z,13.60
2018-09-09T04:00:33.891Z,13.60
2018-09-09T04:03:02.422Z,13.50
2018-09-09T04:05:30.858Z,13.50
2018-09-09T04:07:59.315Z,13.50
2018-09-09T04:10:27.787Z,13.50
2018-09-09T04:12:56.228Z,13.50
2018-09-09T04:15:24.691Z,13.50
2018-09-09T04:17:53.186Z,13.50
2018-09-09T04:20:21.655Z,13.50
2018-09-09T04:22:50.161Z,13.50
2018-09-09T04:25:18.666Z,13.50
2018-09-09T04:27:47.123Z,13.50
2018-09-09T04:30:15.595Z,13.50
2018-09-09T04:32:44.098Z,13.50
2018-09-09T04:35:12.584Z,13.60
2018-09-09T04:37:41.038Z,13.60
2018-09-09T04:40:09.564Z,13.60
2018-09-09T04:42:38.006Z,13.70
2018-09-09T04:45:06.494Z,13.70
2018-09-09T04:47:35.042Z,13.80
2018-09-09T04:50:03.554Z,13.80
2018-09-09T04:52:32.018Z,13.90
2018-09-09T04:55:00.561Z,13.90
2018-09-09T04:57:29.073Z,13.90
2018-09-09T04:59:57.556Z,13.90
2018-09-09T05:02:26.059Z,14.00
2018-09-09T05:04:54.527Z,14.00
2018-09-09T05:07:23.013Z,14.00
2018-09-09T05:09:51.546Z,14.00
2018-09-09T05:12:20.006Z,14.00
2018-09-09T05:14:48.470Z,14.10
2018-09-09T05:17:17.002Z,14.10
2018-09-09T05:19:45.458Z,14.10
2018-09-09T05:22:13.944Z,14.10
2018-09-09T05:24:42.458Z,14.10
2018-09-09T05:27:10.903Z,14.10
2018-09-09T05:29:39.365Z,14.20
2018-09-09T05:32:07.920Z,14.20
2018-09-09T05:34:36.386Z,14.20
2018-09-09T05:37:04.938Z,14.20
2018-09-09T05:39:33.419Z,14.20
2018-09-09T05:42:01.861Z,14.30
2018-09-09T05:44:30.334Z,14.30
2018-09-09T05:46:58.799Z,14.30
2018-09-09T05:49:27.263Z,14.40
2018-09-09T05:51:55.702Z,14.40
2018-09-09T05:54:24.218Z,14.50
2018-09-09T05:56:52.671Z,14.50
2018-09-09T05:59:21.115Z,14.50
2018-09-09T06:01:49.698Z,14.60
2018-09-09T06:04:18.148Z,14.60
2018-09-09T06:06:46.586Z,14.70
2018-09-09T06:09:15.116Z,14.80
2018-09-09T06:11:43.561Z,14.80
2018-09-09T06:14:11.994Z,14.90
2018-09-09T06:16:40.514Z,14.90
2018-09-09T06:19:08.978Z,15.00
2018-09-09T06:21:37.459Z,15.10
2018-09-09T06:24:06.026Z,15.10
2018-09-09T06:26:34.473Z,15.20
2018-09-09T06:29:02.951Z,15.30
2018-09-09T06:31:31.420Z,15.40
2018-09-09T06:33:59.886Z,15.40
2018-09-09T06:36:28.310Z,15.50
2018-09-09T06:38:56.851Z,15.60
2018-09-09T06:41:25.311Z,15.70
2018-09-09T06:43:53.822Z,15.80
2018-09-09T06:46:22.410Z,15.90
2018-09-09T06:48:50.821Z,16.00
2018-09-09T06:51:19.358Z,16.10
2018-09-09T06:53:47.802Z,16.20
2018-09-09T06:56:16.278Z,16.30
2018-09-09T06:58:44.743Z,16.40
2018-09-09T07:01:13.254Z,16.50
2018-09-09T07:03:41.686Z,16.60
2018-09-09T07:06:10.157Z,16.70
2018-09-09T07:08:39.020Z,16.80
2018-09-09T07:11:07.664Z,16.90
2018-09-09T07:13:36.366Z,17.00
2018-09-09T07:16:04.934Z,17.20
2018-09-09T07:18:33.458Z,17.30
2018-09-09T07:21:01.894Z,17.40
2018-09-09T07:23:30.395Z,17.60
2018-09-09T07:25:58.904Z,17.70
2018-09-09T07:28:27.422Z,17.80
2018-09-09T07:30:55.876Z,18.00
2018-09-09T07:33:24.783Z,18.10
2018-09-09T07:35:53.504Z,18.20
2018-09-09T07:38:22.506Z,18.30
2018-09-09T07:40:50.993Z,18.50
2018-09-09T07:43:19.488Z,18.70
2018-09-09T07:45:47.998Z,18.80
2018-09-09T07:48:16.462Z,18.90
2018-09-09T07:50:44.947Z,19.10
2018-09-09T07:53:13.468Z,19.20
2018-09-09T07:55:41.950Z,19.30
2018-09-09T07:58:10.402Z,19.40
2018-09-09T08:00:38.967Z,19.60
2018-09-09T08:03:07.583Z,19.60
2018-09-09T08:05:36.051Z,19.70
2018-09-09T08:08:04.544Z,19.60
2018-09-09T08:10:33.018Z,19.50
2018-09-09T08:13:01.471Z,19.40
2018-09-09T08:15:30.024Z,19.40
2018-09-09T08:17:58.486Z,19.30
2018-09-09T08:20:26.923Z,19.30
2018-09-09T08:22:55.496Z,19.20
2018-09-09T08:25:25.570Z,19.20
2018-09-09T08:27:54.010Z,19.30
2018-09-09T08:30:22.507Z,19.30
2018-09-09T08:32:50.962Z,19.30
2018-09-09T08:35:19.414Z,19.40
2018-09-09T08:37:47.895Z,19.40
2018-09-09T08:40:16.350Z,19.50
2018-09-09T08:42:44.796Z,19.50
2018-09-09T08:45:13.342Z,19.40
2018-09-09T08:47:41.886Z,19.40
2018-09-09T08:50:10.328Z,19.40
2018-09-09T08:52:38.786Z,19.40
2018-09-09T08:55:07.270Z,19.40
2018-09-09T08:57:35.772Z,19.50
2018-09-09T09:00:04.455Z,19.70
2018-09-09T09:02:32.889Z,19.90
2018-09-09T09:05:01.339Z,20.10
2018-09-09T09:07:29.929Z,20.20
2018-09-09T09:09:58.440Z,20.30
2018-09-09T09:12:26.924Z,20.40
2018-09-09T09:14:55.465Z,20.40
2018-09-09T09:17:23.946Z,20.40
2018-09-09T09:19:52.392Z,20.40
2018-09-09T09:22:21.043Z,20.40
2018-09-09T09:24:49.538Z,20.40
2018-09-09T09:27:18.003Z,20.40
2018-09-09T09:29:51.870Z,20.40
2018-09-09T09:32:23.551Z,20.50
2018-09-09T09:34:52.808Z,20.40
2018-09-09T09:37:22.422Z,20.40
2018-09-09T09:39:51.394Z,20.40
2018-09-09T09:42:19.956Z,20.40
2018-09-09T09:44:48.415Z,20.50
2018-09-09T09:47:16.875Z,20.60
2018-09-09T09:49:45.895Z,20.60
2018-09-09T09:52:14.398Z,20.70
2018-09-09T09:54:42.885Z,20.60
2018-09-09T09:57:11.451Z,20.60
2018-09-09T09:59:39.919Z,20.60
2018-09-09T10:02:08.390Z,20.60
2018-09-09T10:04:36.930Z,20.70
2018-09-09T10:07:05.415Z,20.70
2018-09-09T10:09:33.877Z,20.80
2018-09-09T10:12:02.402Z,20.80
2018-09-09T10:14:30.895Z,20.90
2018-09-09T10:16:59.397Z,20.90
2018-09-09T10:19:27.915Z,20.90
2018-09-09T10:21:56.382Z,20.90
2018-09-09T10:24:25.146Z,20.90
2018-09-09T10:26:53.728Z,20.90
2018-09-09T10:29:22.311Z,21.00
2018-09-09T10:31:50.839Z,21.10
2018-09-09T10:34:19.373Z,21.40
2018-09-09T10:36:47.818Z,21.50
2018-09-09T10:39:16.275Z,21.40
2018-09-09T10:41:44.815Z,21.40
2018-09-09T10:44:13.450Z,21.40
2018-09-09T10:46:41.956Z,21.60
2018-09-09T10:49:10.491Z,21.80
2018-09-09T10:51:38.966Z,22.00
2018-09-09T10:54:07.562Z,22.00
2018-09-09T10:56:36.090Z,22.00
2018-09-09T10:59:04.597Z,21.90
2018-09-09T11:01:33.038Z,21.90
2018-09-09T11:04:01.557Z,21.80
2018-09-09T11:06:30.066Z,21.80
2018-09-09T11:08:58.548Z,21.80
2018-09-09T11:11:27.110Z,21.70
2018-09-09T11:13:55.561Z,21.70
2018-09-09T11:16:24.085Z,21.80
2018-09-09T11:18:52.692Z,21.80
2018-09-09T11:21:21.130Z,21.80
2018-09-09T11:23:50.901Z,21.90
2018-09-09T11:26:21.146Z,22.00
2018-09-09T11:28:49.602Z,22.20
2018-09-09T11:31:18.042Z,22.20
2018-09-09T11:33:46.569Z,22.30
2018-09-09T11:36:15.690Z,22.40
2018-09-09T11:38:44.556Z,22.40
2018-09-09T11:41:13.066Z,22.40
2018-09-09T11:43:41.569Z,22.30
2018-09-09T11:46:10.039Z,22.20
2018-09-09T11:48:38.646Z,22.20
2018-09-09T11:51:07.155Z,22.30
2018-09-09T11:53:35.626Z,22.20
2018-09-09T11:56:04.148Z,22.20
2018-09-09T11:58:32.622Z,22.20
2018-09-09T12:01:01.418Z,22.20
2018-09-09T12:03:30.000Z,22.30
2018-09-09T12:05:58.446Z,22.30
2018-09-09T12:08:26.951Z,22.40
2018-09-09T12:10:55.425Z,22.40
2018-09-09T12:13:23.920Z,22.40
2018-09-09T12:15:52.370Z,22.30
2018-09-09T12:18:20.868Z,22.30
2018-09-09T12:20:49.318Z,22.20
2018-09-09T12:23:17.775Z,22.20
2018-09-09T12:25:46.305Z,22.20
2018-09-09T12:28:14.772Z,22.30
2018-09-09T12:30:43.266Z,22.40
2018-09-09T12:33:11.774Z,22.40
2018-09-09T12:35:40.227Z,22.40
2018-09-09T12:38:08.814Z,22.40
2018-09-09T12:40:37.340Z,22.40
2018-09-09T12:43:11.259Z,22.40
2018-09-09T12:45:45.188Z,22.40
2018-09-09T12:48:18.842Z,22.40
2018-09-09T12:50:47.374Z,22.50
2018-09-09T12:53:16.158Z,22.50
2018-09-09T12:55:44.669Z,22.60
2018-09-09T12:58:13.170Z,22.60
2018-09-09T13:00:41.702Z,22.60
2018-09-09T13:03:10.275Z,22.60
2018-09-09T13:05:38.855Z,22.70
2018-09-09T13:08:07.757Z,22.80
2018-09-09T13:10:36.521Z,22.70
2018-09-09T13:13:10.763Z,22.60
2018-09-09T13:15:39.246Z,22.60
2018-09-09T13:18:07.699Z,22.60
2018-09-09T13:20:38.390Z,22.70
2018-09-09T13:23:06.860Z,22.70
2018-09-09T13:25:35.337Z,22.60
2018-09-09T13:28:04.242Z,22.50
2018-09-09T13:30:32.750Z,22.50
2018-09-09T13:33:01.209Z,22.60
2018-09-09T13:35:32.940Z,22.70
2018-09-09T13:38:01.403Z,22.80
2018-09-09T13:40:29.890Z,22.80
2018-09-09T13:42:58.459Z,22.80
2018-09-09T13:45:26.939Z,22.80
2018-09-09T13:47:55.440Z,22.70
2018-09-09T13:50:23.996Z,22.60
2018-09-09T13:52:52.520Z,22.50
2018-09-09T13:55:20.980Z,22.50
2018-09-09T13:57:49.558Z,22.40
2018-09-09T14:00:18.026Z,22.30
2018-09-09T14:02:46.499Z,22.20
2018-09-09T14:05:15.326Z,22.10
2018-09-09T14:07:44.117Z,22.00
2018-09-09T14:10:12.711Z,21.90
2018-09-09T14:12:41.210Z,21.80
2018-09-09T14:15:09.732Z,21.70
2018-09-09T14:17:38.171Z,21.60
2018-09-09T14:20:06.755Z,21.60
2018-09-09T14:22:35.280Z,21.60
2018-09-09T14:25:03.732Z,21.60
2018-09-09T14:27:32.322Z,21.80
2018-09-09T14:30:00.844Z,21.90
2018-09-09T14:32:29.326Z,22.20
2018-09-09T14:34:57.870Z,22.30
2018-09-09T14:37:26.335Z,22.40
2018-09-09T14:39:54.798Z,22.40
2018-09-09T14:42:23.325Z,22.40
2018-09-09T14:44:51.814Z,22.50
2018-09-09T14:47:20.304Z,22.60
2018-09-09T14:49:49.098Z,22.60
2018-09-09T14:52:17.565Z,22.60
2018-09-09T14:54:46.041Z,22.40
2018-09-09T14:57:14.518Z,22.20
2018-09-09T14:59:43.016Z,22.10
2018-09-09T15:02:11.507Z,21.90
2018-09-09T15:04:40.225Z,21.80
2018-09-09T15:07:08.726Z,21.80
2018-09-09T15:09:37.222Z,21.70
2018-09-09T15:12:05.720Z,21.70
2018-09-09T15:14:34.207Z,21.60
2018-09-09T15:17:02.727Z,21.50
2018-09-09T15:19:31.402Z,21.50
2018-09-09T15:21:59.884Z,21.40
2018-09-09T15:24:28.328Z,21.50
2018-09-09T15:26:56.814Z,21.40
2018-09-09T15:29:25.294Z,21.50
2018-09-09T15:31:53.722Z,21.30
2018-09-09T15:34:22.229Z,21.30
2018-09-09T15:36:50.689Z,21.30
2018-09-09T15:39:19.122Z,21.30
2018-09-09T15:41:47.614Z,21.30
2018-09-09T15:44:16.072Z,21.20
2018-09-09T15:46:44.513Z,21.20
2018-09-09T15:49:13.002Z,21.10
2018-09-09T15:51:41.452Z,21.10
2018-09-09T15:54:09.945Z,21.00
2018-09-09T15:56:38.442Z,20.90
2018-09-09T15:59:06.903Z,20.90
2018-09-09T16:01:35.354Z,20.90
2018-09-09T16:04:03.886Z,20.90
2018-09-09T16:06:32.438Z,20.90
2018-09-09T16:09:00.974Z,20.90
2018-09-09T16:11:29.474Z,20.90
2018-09-09T16:13:57.922Z,20.80
2018-09-09T16:16:26.382Z,20.80
2018-09-09T16:18:54.915Z,20.70
2018-09-09T16:21:23.371Z,20.70
2018-09-09T16:23:51.830Z,20.60
2018-09-09T16:26:20.326Z,20.50
2018-09-09T16:28:49.324Z,20.40
2018-09-09T16:31:17.795Z,20.30
2018-09-09T16:33:46.326Z,20.30
2018-09-09T16:36:14.873Z,20.20
2018-09-09T16:38:43.318Z,20.10
2018-09-09T16:41:11.931Z,19.90
2018-09-09T16:43:40.459Z,19.90
2018-09-09T16:46:08.935Z,19.80
2018-09-09T16:48:37.634Z,19.60
2018-09-09T16:51:06.191Z,19.60
2018-09-09T16:53:34.639Z,19.50
2018-09-09T16:56:03.279Z,19.50
2018-09-09T16:58:31.775Z,19.40
2018-09-09T17:01:00.253Z,19.40
2018-09-09T17:03:28.825Z,19.40
2018-09-09T17:05:57.356Z,19.30
2018-09-09T17:08:25.906Z,19.30
2018-09-09T17:10:54.482Z,19.30
2018-09-09T17:13:22.964Z,19.20
2018-09-09T17:15:51.451Z,19.20
2018-09-09T17:18:20.874Z,19.10
2018-09-09T17:20:49.339Z,19.10
2018-09-09T17:23:17.777Z,19.10
2018-09-09T17:25:46.282Z,19.00
2018-09-09T17:28:14.730Z,19.00
2018-09-09T17:30:43.258Z,19.00
2018-09-09T17:33:14.773Z,18.90
2018-09-09T17:35:43.230Z,18.90
2018-09-09T17:38:11.706Z,18.80
2018-09-09T17:40:40.254Z,18.80
2018-09-09T17:43:08.691Z,18.70
2018-09-09T17:45:37.136Z,18.60
2018-09-09T17:48:05.607Z,18.60
2018-09-09T17:50:34.086Z,18.50
2018-09-09T17:53:02.575Z,18.40
2018-09-09T17:55:31.073Z,18.40
2018-09-09T17:57:59.566Z,18.30
2018-09-09T18:00:27.994Z,18.20
2018-09-09T18:02:56.491Z,18.10
2018-09-09T18:05:24.942Z,18.00
2018-09-09T18:07:53.410Z,17.90
2018-09-09T18:10:21.986Z,17.80
2018-09-09T18:12:50.488Z,17.80
2018-09-09T18:15:18.982Z,17.70
2018-09-09T18:17:47.604Z,17.60
2018-09-09T18:20:16.742Z,17.60
2018-09-09T18:25:47.311Z,17.40
2018-09-09T18:28:15.726Z,17.40
2018-09-09T18:30:44.166Z,17.30
2018-09-09T18:33:12.640Z,17.30
2018-09-09T18:35:41.070Z,17.30
2018-09-09T18:38:09.494Z,17.20
2018-09-09T18:40:38.014Z,17.20
2018-09-09T18:43:06.531Z,17.20
2018-09-09T18:45:34.996Z,17.10
2018-09-09T18:48:03.535Z,17.00
2018-09-09T18:50:32.023Z,17.00
2018-09-09T18:53:00.529Z,17.00
2018-09-09T18:55:29.219Z,16.90
2018-09-09T18:57:57.712Z,16.90
2018-09-09T19:00:26.386Z,16.90
2018-09-09T19:02:54.923Z,16.80
2018-09-09T19:05:23.934Z,16.80
2018-09-09T19:07:52.482Z,16.70
2018-09-09T19:10:21.226Z,16.70
2018-09-09T19:12:49.662Z,16.60
2018-09-09T19:15:18.760Z,16.60
2018-09-09T19:17:47.290Z,16.50
2018-09-09T19:20:15.882Z,16.50
2018-09-09T19:22:44.341Z,16.50
2018-09-09T19:25:12.856Z,16.40
2018-09-09T19:27:41.329Z,16.40
2018-09-09T19:30:09.835Z,16.40
2018-09-09T19:32:38.398Z,16.30
2018-09-09T19:35:06.870Z,16.30
2018-09-09T19:37:35.338Z,16.20
2018-09-09T19:40:03.927Z,16.20
2018-09-09T19:42:34.955Z,16.20
2018-09-09T19:45:04.514Z,16.10
2018-09-09T19:47:33.178Z,16.10
2018-09-09T19:50:02.414Z,16.10
2018-09-09T19:52:30.850Z,16.10
2018-09-09T19:54:59.484Z,16.10
2018-09-09T19:57:27.974Z,16.10
2018-09-09T19:59:56.445Z,16.00
2018-09-09T20:02:25.065Z,16.00
2018-09-09T20:04:53.614Z,16.00
2018-09-09T20:07:22.010Z,15.90
2018-09-09T20:09:50.522Z,16.00
2018-09-09T20:12:19.004Z,15.90
2018-09-09T20:14:47.542Z,15.90
2018-09-09T20:17:16.048Z,15.90
2018-09-09T20:19:44.503Z,15.90
2018-09-09T20:22:13.035Z,15.90
2018-09-09T20:24:41.826Z,15.90
2018-09-09T20:27:10.278Z,15.90
2018-09-09T20:29:39.783Z,15.90
2018-09-09T20:32:09.130Z,15.90
2018-09-09T20:34:37.570Z,15.90
2018-09-09T20:37:06.080Z,16.00
2018-09-09T20:39:34.602Z,16.00
2018-09-09T20:42:03.050Z,16.00
2018-09-09T20:44:31.487Z,16.00
2018-09-09T20:47:03.131Z,16.10
2018-09-09T20:49:31.619Z,16.10
2018-09-09T20:52:00.070Z,16.10
2018-09-09T20:54:28.578Z,16.10
2018-09-09T20:56:57.035Z,16.10
2018-09-09T20:59:25.511Z,16.10
2018-09-09T21:01:54.047Z,16.10
2018-09-09T21:04:22.498Z,16.10
2018-09-09T21:06:50.949Z,16.20
2018-09-09T21:09:19.610Z,16.10
2018-09-09T21:11:48.058Z,16.10
2018-09-09T21:14:16.520Z,16.10
2018-09-09T21:16:46.242Z,16.10
2018-09-09T21:19:14.630Z,16.10
2018-09-09T21:21:43.150Z,16.10
2018-09-09T21:24:11.695Z,16.10
2018-09-09T21:26:40.367Z,16.20
2018-09-09T21:29:08.824Z,16.20
2018-09-09T21:31:37.326Z,16.20
2018-09-09T21:34:05.938Z,16.10
2018-09-09T21:36:34.410Z,16.10
2018-09-09T21:39:03.046Z,16.10
2018-09-09T21:41:31.523Z,16.10
2018-09-09T21:44:00.010Z,16.20
2018-09-09T21:46:28.534Z,16.20
2018-09-09T21:48:57.006Z,16.20
2018-09-09T21:51:25.498Z,16.20
2018-09-09T21:53:54.010Z,16.20
2018-09-09T21:56:22.602Z,16.20
2018-09-09T21:58:51.070Z,16.20
2018-09-09T22:01:24.853Z,16.20
2018-09-09T22:03:57.265Z,16.20
2018-09-09T22:06:26.294Z,16.20
2018-09-09T22:08:55.301Z,16.10
2018-09-09T22:11:24.022Z,16.20
2018-09-09T22:13:52.795Z,16.10
2018-09-09T22:16:21.288Z,16.20
2018-09-09T22:18:49.798Z,16.20
2018-09-09T22:21:18.434Z,16.20
2018-09-09T22:23:46.996Z,16.20
2018-09-09T22:26:16.786Z,16.20
2018-09-09T22:28:45.433Z,16.20
2018-09-09T22:31:13.886Z,16.20
2018-09-09T22:33:42.350Z,16.10
2018-09-09T22:36:10.900Z,16.10
2018-09-09T22:38:39.382Z,16.20
2018-09-09T22:41:07.898Z,16.20
2018-09-09T22:43:36.416Z,16.10
2018-09-09T22:46:04.934Z,16.10
2018-09-09T22:48:33.391Z,16.10
2018-09-09T22:51:01.950Z,16.10
2018-09-09T22:53:30.426Z,16.10
2018-09-09T22:55:58.870Z,16.10
2018-09-09T22:58:27.392Z,16.10
2018-09-09T23:00:55.981Z,16.10
2018-09-09T23:03:24.483Z,16.10
2018-09-09T23:05:52.991Z,16.10
2018-09-09T23:08:21.578Z,16.10
2018-09-09T23:10:50.058Z,16.00
2018-09-09T23:13:18.594Z,16.00
2018-09-09T23:15:47.045Z,16.00
2018-09-09T23:18:15.510Z,16.00
2018-09-09T23:20:44.046Z,15.90
2018-09-09T23:23:12.534Z,15.90
2018-09-09T23:25:41.001Z,15.90
2018-09-09T23:28:09.522Z,15.90
2018-09-09T23:30:37.994Z,15.90
2018-09-09T23:33:06.495Z,15.80
2018-09-09T23:35:35.082Z,15.80
2018-09-09T23:38:03.554Z,15.80
2018-09-09T23:40:32.065Z,15.80
2018-09-09T23:43:00.549Z,15.70
2018-09-09T23:45:29.032Z,15.70
2018-09-09T23:47:57.490Z,15.70
2018-09-09T23:50:26.002Z,15.70
2018-09-09T23:52:54.457Z,15.70
2018-09-09T23:55:22.966Z,15.60
2018-09-09T23:57:51.594Z,15.60
